Time;durP1;ratioP1;P1;durP2;ratioP2;P2;SDS_P1;SDS_P2;PMS_P1;PMS_P2;Temp;Humidity;BMP_temperature;BMP_pressure;BME280_temperature;BME280_humidity;BME280_pressure;Samples;Min_cycle;Max_cycle;Signal;HPM_P1;HPM_P2
2022/02/13 00:00:37;;;;;;;5.60;4.43;;;2.70;99.30;;;;;;4957472;28;20182;-50
2022/02/13 00:03:02;;;;;;;5.97;4.30;;;2.70;99.00;;;;;;4953471;28;20175;-56
2022/02/13 00:05:28;;;;;;;6.07;4.43;;;2.60;98.90;;;;;;4954392;28;20266;-56
2022/02/13 00:07:54;;;;;;;6.30;4.47;;;2.60;98.90;;;;;;4963845;28;20220;-56
2022/02/13 00:10:20;;;;;;;7.17;4.60;;;2.60;99.00;;;;;;4973452;28;20185;-57
2022/02/13 00:12:45;;;;;;;6.37;4.50;;;2.60;99.10;;;;;;4973405;28;20516;-59
2022/02/13 00:15:11;;;;;;;6.93;4.80;;;2.60;99.10;;;;;;4972651;28;20173;-57
2022/02/13 00:17:37;;;;;;;5.00;3.67;;;2.50;99.50;;;;;;5038366;22;20699;-62
2022/02/13 00:20:04;;;;;;;4.67;4.00;;;2.50;99.50;;;;;;5047238;28;20726;-61
2022/02/13 00:22:30;;;;;;;6.57;3.93;;;2.50;99.60;;;;;;5048404;28;20205;-59
2022/02/13 00:24:56;;;;;;;6.33;4.30;;;2.50;99.70;;;;;;5049230;28;20405;-61
2022/02/13 00:27:22;;;;;;;6.17;3.83;;;2.40;99.60;;;;;;5049224;28;20429;-61
2022/02/13 00:29:47;;;;;;;6.60;4.30;;;2.40;99.70;;;;;;5049598;28;20215;-62
2022/02/13 00:32:13;;;;;;;6.43;4.00;;;2.40;99.60;;;;;;5050975;28;20269;-62
2022/02/13 00:34:39;;;;;;;6.20;4.50;;;2.50;99.90;;;;;;5051581;28;20182;-60
2022/02/13 00:37:06;;;;;;;5.30;3.60;;;2.40;99.90;;;;;;5049919;28;20203;-61
2022/02/13 00:39:32;;;;;;;4.97;3.90;;;2.30;99.80;;;;;;5051386;28;20229;-61
2022/02/13 00:41:57;;;;;;;5.57;4.17;;;2.30;99.80;;;;;;5051532;28;20397;-63
2022/02/13 00:44:23;;;;;;;5.60;4.03;;;2.20;99.90;;;;;;5050647;28;20167;-61
2022/02/13 00:46:48;;;;;;;5.13;4.10;;;2.20;99.90;;;;;;5051044;28;20171;-60
2022/02/13 00:49:14;;;;;;;6.43;4.30;;;2.20;99.90;;;;;;5051032;28;20175;-59
2022/02/13 00:51:40;;;;;;;5.57;4.17;;;2.10;99.90;;;;;;5051648;28;20174;-60
2022/02/13 00:54:05;;;;;;;6.00;4.27;;;2.10;99.90;;;;;;5051328;28;20258;-60
2022/02/13 00:56:31;;;;;;;6.37;4.43;;;2.10;99.90;;;;;;5051478;28;20212;-61
2022/02/13 00:58:56;;;;;;;5.30;3.93;;;2.10;99.90;;;;;;5051234;28;20187;-61
2022/02/13 01:01:22;;;;;;;6.07;3.83;;;2.10;99.90;;;;;;5051702;28;20177;-62
2022/02/13 01:03:47;;;;;;;5.10;3.60;;;2.10;99.90;;;;;;5051412;28;20548;-62
2022/02/13 01:06:13;;;;;;;6.77;4.30;;;2.20;99.90;;;;;;5051532;28;20278;-61
2022/02/13 01:08:39;;;;;;;5.23;3.77;;;2.10;99.90;;;;;;5050655;28;20195;-61
2022/02/13 01:11:06;;;;;;;5.10;3.47;;;2.10;99.90;;;;;;5051409;28;20178;-61
2022/02/13 01:13:32;;;;;;;5.10;3.90;;;2.10;99.90;;;;;;5055766;28;20508;-60
2022/02/13 01:15:58;;;;;;;5.07;3.77;;;2.00;99.90;;;;;;5055306;28;21109;-59
2022/02/13 01:18:24;;;;;;;6.07;4.20;;;2.00;99.90;;;;;;5055302;28;20495;-62
2022/02/13 01:20:51;;;;;;;4.93;3.93;;;3.80;99.90;;;;;;5055153;28;20421;-60
2022/02/13 01:23:17;;;;;;;5.03;3.83;;;2.00;99.90;;;;;;5055644;28;20410;-62
2022/02/13 01:25:42;;;;;;;5.27;4.10;;;1.90;99.90;;;;;;5055080;28;20478;-62
2022/02/13 01:28:08;;;;;;;5.40;4.10;;;1.90;99.90;;;;;;5054874;28;20209;-61
2022/02/13 01:30:34;;;;;;;5.97;4.27;;;1.90;99.90;;;;;;5055351;28;20552;-62
2022/02/13 01:33:00;;;;;;;7.20;4.20;;;1.90;99.90;;;;;;5055025;28;20567;-61
2022/02/13 01:35:25;;;;;;;5.47;3.80;;;1.90;99.90;;;;;;5055158;28;20179;-62
2022/02/13 01:37:51;;;;;;;5.50;3.90;;;1.90;99.90;;;;;;5054958;28;20429;-61
2022/02/13 01:40:17;;;;;;;4.53;3.83;;;1.90;99.90;;;;;;5055220;28;20258;-61
2022/02/13 01:42:43;;;;;;;5.47;4.00;;;1.90;99.90;;;;;;5055309;28;20250;-61
2022/02/13 01:45:09;;;;;;;5.50;3.80;;;1.80;99.90;;;;;;5054778;28;20759;-62
2022/02/13 01:47:35;;;;;;;4.97;3.70;;;1.80;99.90;;;;;;5055139;28;20610;-62
2022/02/13 01:50:02;;;;;;;5.53;3.80;;;1.80;99.90;;;;;;5054614;28;20421;-62
2022/02/13 01:52:28;;;;;;;4.40;4.00;;;1.70;99.90;;;;;;5054709;28;20193;-62
2022/02/13 01:54:54;;;;;;;4.90;3.77;;;1.70;99.90;;;;;;5054571;28;20467;-62
2022/02/13 01:57:21;;;;;;;4.57;3.40;;;1.70;99.90;;;;;;5054736;28;20472;-62
2022/02/13 01:59:46;;;;;;;4.93;3.90;;;1.70;99.90;;;;;;5054801;28;20191;-61
2022/02/13 02:02:12;;;;;;;5.70;3.83;;;1.60;99.90;;;;;;5054707;28;20406;-62
2022/02/13 02:04:39;;;;;;;4.27;3.40;;;1.60;99.90;;;;;;5054709;28;20179;-62
2022/02/13 02:07:04;;;;;;;4.57;3.77;;;1.50;99.90;;;;;;5054824;28;20207;-60
2022/02/13 02:09:30;;;;;;;4.67;3.77;;;1.50;99.90;;;;;;5055098;28;20914;-63
2022/02/13 02:11:56;;;;;;;4.27;3.60;;;1.50;99.90;;;;;;5036968;28;20236;-61
2022/02/13 02:14:22;;;;;;;4.70;3.63;;;1.50;99.90;;;;;;5054612;28;20198;-62
2022/02/13 02:16:47;;;;;;;4.67;3.77;;;1.50;99.90;;;;;;5054350;28;20210;-61
2022/02/13 02:19:13;;;;;;;4.83;3.90;;;1.50;99.90;;;;;;5053934;28;20426;-60
2022/02/13 02:21:43;;;;;;;4.13;3.53;;;1.50;99.90;;;;;;5054121;28;20543;-63
2022/02/13 02:24:13;;;;;;;4.93;3.50;;;1.40;99.90;;;;;;5053356;28;20175;-61
2022/02/13 02:26:39;;;;;;;5.07;4.00;;;1.50;99.90;;;;;;5054202;28;20910;-63
2022/02/13 02:29:04;;;;;;;6.90;3.80;;;1.50;99.90;;;;;;5052827;28;20409;-62
2022/02/13 02:31:30;;;;;;;6.93;4.10;;;1.50;99.90;;;;;;5054379;28;20191;-62
2022/02/13 02:33:56;;;;;;;5.10;4.00;;;1.50;99.90;;;;;;5054069;28;20225;-60
2022/02/13 02:36:21;;;;;;;5.00;3.97;;;1.50;99.90;;;;;;5053156;28;20671;-61
2022/02/13 02:38:47;;;;;;;6.23;4.20;;;1.40;99.90;;;;;;5053984;28;20191;-59
2022/02/13 02:41:14;;;;;;;5.67;3.90;;;1.40;99.90;;;;;;5053816;28;20199;-60
2022/02/13 02:43:40;;;;;;;5.13;4.17;;;1.30;99.90;;;;;;5054028;28;20471;-61
2022/02/13 02:46:07;;;;;;;5.17;3.90;;;1.40;99.90;;;;;;5053719;28;20422;-60
2022/02/13 02:48:33;;;;;;;4.97;4.07;;;1.40;99.90;;;;;;5053735;28;20429;-62
2022/02/13 02:51:00;;;;;;;5.30;3.73;;;1.40;99.90;;;;;;5053756;28;20467;-59
2022/02/13 02:53:26;;;;;;;5.73;4.07;;;1.40;99.90;;;;;;5053791;28;20488;-60
2022/02/13 02:55:51;;;;;;;4.80;3.83;;;1.40;99.90;;;;;;5053713;28;20897;-59
2022/02/13 02:58:17;;;;;;;3.67;3.20;;;1.50;99.90;;;;;;5053447;28;20199;-59
2022/02/13 03:00:43;;;;;;;5.00;3.50;;;1.40;99.90;;;;;;5053871;28;20560;-62
2022/02/13 03:03:08;;;;;;;3.83;3.37;;;1.40;99.90;;;;;;5053267;28;20178;-62
2022/02/13 03:05:34;;;;;;;5.07;3.40;;;1.40;99.90;;;;;;5053645;28;20174;-62
2022/02/13 03:07:59;;;;;;;4.53;3.30;;;1.40;99.90;;;;;;5052779;28;20201;-62
2022/02/13 03:10:25;;;;;;;3.83;3.17;;;1.40;99.90;;;;;;5053200;28;20167;-61
2022/02/13 03:12:50;;;;;;;4.57;3.57;;;1.40;99.90;;;;;;5052423;28;20167;-60
2022/02/13 03:15:16;;;;;;;5.93;3.60;;;1.40;99.90;;;;;;5051588;28;20171;-61
2022/02/13 03:17:41;;;;;;;4.57;3.30;;;1.40;99.90;;;;;;5053335;28;20748;-59
2022/02/13 03:20:09;;;;;;;3.73;3.00;;;1.40;99.90;;;;;;5052670;28;20206;-61
2022/02/13 03:22:35;;;;;;;3.30;2.80;;;1.40;99.90;;;;;;5053399;28;20183;-60
2022/02/13 03:25:01;;;;;;;4.57;3.33;;;1.40;99.90;;;;;;5053198;28;20413;-61
2022/02/13 03:27:26;;;;;;;4.63;3.40;;;1.30;99.90;;;;;;5052941;28;20197;-61
2022/02/13 03:29:52;;;;;;;3.40;3.10;;;1.40;99.90;;;;;;5053164;28;20276;-58
2022/02/13 03:32:18;;;;;;;3.73;3.33;;;1.30;99.90;;;;;;5051631;28;20182;-57
2022/02/13 03:34:43;;;;;;;3.73;3.33;;;1.30;99.90;;;;;;5051849;28;20183;-62
2022/02/13 03:37:09;;;;;;;4.33;3.00;;;1.30;99.90;;;;;;5052478;28;20209;-61
2022/02/13 03:39:35;;;;;;;4.27;3.10;;;1.20;99.90;;;;;;5053011;28;20262;-62
2022/02/13 03:42:00;;;;;;;4.63;3.67;;;1.20;99.90;;;;;;5052940;28;20641;-59
2022/02/13 03:44:26;;;;;;;4.00;3.37;;;1.20;99.90;;;;;;5052690;28;20428;-61
2022/02/13 03:46:52;;;;;;;4.10;3.00;;;1.20;99.90;;;;;;5052879;28;20179;-62
2022/02/13 03:49:18;;;;;;;4.00;3.20;;;1.20;99.90;;;;;;5052261;28;20639;-61
2022/02/13 03:51:44;;;;;;;5.23;3.03;;;1.20;99.90;;;;;;5052782;28;20171;-62
2022/02/13 03:54:09;;;;;;;3.30;2.80;;;1.20;99.90;;;;;;5052445;28;20822;-62
2022/02/13 03:56:35;;;;;;;3.27;2.97;;;1.30;99.90;;;;;;5052606;28;20199;-58
2022/02/13 03:59:00;;;;;;;3.10;2.80;;;1.30;99.90;;;;;;5052318;28;20175;-61
2022/02/13 04:01:26;;;;;;;4.33;3.10;;;1.30;99.90;;;;;;5052626;28;20258;-61
2022/02/13 04:03:51;;;;;;;5.20;3.20;;;1.20;99.90;;;;;;5052630;28;20198;-61
2022/02/13 04:06:17;;;;;;;4.53;3.23;;;1.20;99.90;;;;;;5051949;28;20183;-61
2022/02/13 04:08:43;;;;;;;3.77;3.07;;;1.20;99.90;;;;;;5052455;28;20206;-60
2022/02/13 04:11:08;;;;;;;4.10;3.17;;;1.20;99.90;;;;;;5052166;28;20648;-61
2022/02/13 04:13:34;;;;;;;3.40;3.10;;;1.20;99.90;;;;;;5052473;28;20179;-62
2022/02/13 04:15:59;;;;;;;3.67;3.03;;;1.20;99.90;;;;;;5051907;28;20267;-62
2022/02/13 04:18:25;;;;;;;3.50;3.03;;;1.10;99.90;;;;;;5051974;28;20710;-61
2022/02/13 04:20:51;;;;;;;4.57;3.33;;;1.10;99.90;;;;;;5052261;28;20572;-62
2022/02/13 04:23:16;;;;;;;3.77;3.10;;;1.10;99.90;;;;;;5052028;28;20641;-63
2022/02/13 04:25:42;;;;;;;3.67;3.00;;;1.10;99.90;;;;;;5052100;28;20250;-62
2022/02/13 04:28:07;;;;;;;5.50;3.23;;;1.10;99.90;;;;;;5051579;28;20234;-62
2022/02/13 04:30:33;;;;;;;3.47;2.70;;;1.00;99.90;;;;;;5052202;28;20182;-62
2022/02/13 04:32:58;;;;;;;4.13;3.13;;;1.00;99.90;;;;;;5051637;28;20715;-62
2022/02/13 04:35:25;;;;;;;3.63;3.00;;;1.00;99.90;;;;;;5051867;28;20175;-62
2022/02/13 04:37:55;;;;;;;3.87;3.20;;;1.00;99.90;;;;;;5051930;28;20191;-62
2022/02/13 04:40:21;;;;;;;4.47;3.20;;;1.00;99.90;;;;;;5051861;28;20775;-61
2022/02/13 04:42:47;;;;;;;4.13;3.10;;;1.00;99.90;;;;;;5052193;28;20414;-61
2022/02/13 04:45:13;;;;;;;3.23;2.90;;;1.00;99.90;;;;;;5051405;28;20175;-61
2022/02/13 04:47:40;;;;;;;3.13;2.80;;;1.00;99.90;;;;;;5052145;28;20445;-61
2022/02/13 04:50:06;;;;;;;3.77;2.80;;;1.00;99.90;;;;;;5051128;28;20417;-57
2022/02/13 04:52:32;;;;;;;4.27;3.10;;;1.00;99.90;;;;;;5051707;28;20417;-58
2022/02/13 04:54:57;;;;;;;4.30;3.27;;;1.00;99.90;;;;;;5050145;28;20439;-60
2022/02/13 04:57:23;;;;;;;3.63;2.90;;;1.00;99.90;;;;;;5051305;28;20356;-58
2022/02/13 04:59:48;;;;;;;3.30;2.77;;;1.00;99.90;;;;;;5050383;28;20178;-60
2022/02/13 05:02:14;;;;;;;3.97;3.20;;;1.00;99.90;;;;;;5050010;28;20258;-60
2022/02/13 05:04:40;;;;;;;3.40;2.73;;;1.00;99.90;;;;;;5051303;28;20167;-60
2022/02/13 05:07:06;;;;;;;4.00;3.07;;;1.00;99.90;;;;;;5051177;28;20443;-59
2022/02/13 05:09:32;;;;;;;3.73;2.50;;;1.00;99.90;;;;;;5051381;28;20514;-58
2022/02/13 05:11:57;;;;;;;3.87;3.00;;;0.90;99.90;;;;;;5051512;28;20179;-60
2022/02/13 05:14:24;;;;;;;4.57;3.20;;;0.90;99.90;;;;;;5050977;28;20775;-61
2022/02/13 05:16:49;;;;;;;3.53;2.70;;;0.90;99.90;;;;;;5051131;28;20199;-59
2022/02/13 05:19:15;;;;;;;3.73;2.90;;;0.90;99.90;;;;;;5050778;28;20491;-57
2022/02/13 05:21:41;;;;;;;3.87;3.00;;;0.90;99.90;;;;;;5051528;28;20163;-54
2022/02/13 05:24:06;;;;;;;3.93;2.77;;;0.80;99.90;;;;;;5050956;28;20247;-63
2022/02/13 05:26:32;;;;;;;3.60;2.77;;;0.80;99.90;;;;;;5051323;28;20250;-61
2022/02/13 05:28:57;;;;;;;3.77;2.77;;;0.80;99.90;;;;;;5051209;28;20297;-59
2022/02/13 05:31:29;;;;;;;3.57;2.60;;;0.70;99.90;;;;;;5050823;28;20203;-62
2022/02/13 05:33:57;;;;;;;5.20;3.00;;;0.70;99.90;;;;;;5051251;28;20694;-62
2022/02/13 05:36:22;;;;;;;4.67;3.13;;;0.70;99.90;;;;;;5050568;28;20445;-59
2022/02/13 05:38:48;;;;;;;3.60;3.10;;;0.70;99.90;;;;;;5051139;28;20483;-60
2022/02/13 05:41:13;;;;;;;2.87;2.57;;;0.70;99.90;;;;;;5050951;28;20189;-61
2022/02/13 05:43:39;;;;;;;4.30;2.70;;;0.70;99.90;;;;;;5051263;28;20174;-59
2022/02/13 05:46:04;;;;;;;3.80;3.10;;;0.80;99.90;;;;;;5049860;28;20668;-62
2022/02/13 05:48:31;;;;;;;3.57;2.77;;;0.80;99.90;;;;;;5049313;28;20210;-63
2022/02/13 05:50:57;;;;;;;3.50;2.73;;;0.80;99.90;;;;;;5050124;28;20179;-59
2022/02/13 05:53:22;;;;;;;3.97;2.90;;;0.80;99.90;;;;;;5048999;28;20425;-61
2022/02/13 05:55:48;;;;;;;4.40;3.07;;;0.80;99.90;;;;;;5050340;28;20245;-60
2022/02/13 05:58:15;;;;;;;4.13;2.87;;;0.80;99.90;;;;;;5052315;28;20191;-62
2022/02/13 06:00:41;;;;;;;4.00;2.90;;;0.80;99.90;;;;;;5054168;28;20175;-62
2022/02/13 06:03:06;;;;;;;3.83;2.67;;;0.80;99.90;;;;;;5054086;28;20571;-59
2022/02/13 06:05:32;;;;;;;3.00;2.63;;;0.80;99.90;;;;;;5054155;28;20191;-58
2022/02/13 06:07:57;;;;;;;2.73;2.50;;;0.80;99.90;;;;;;5054896;28;20253;-60
2022/02/13 06:10:23;;;;;;;4.00;2.90;;;0.70;99.90;;;;;;5054262;28;20182;-60
2022/02/13 06:12:48;;;;;;;3.23;2.70;;;0.70;99.90;;;;;;5036949;28;20261;-61
2022/02/13 06:15:14;;;;;;;3.60;3.13;;;0.70;99.90;;;;;;5053926;28;20194;-59
2022/02/13 06:17:39;;;;;;;8.43;5.43;;;0.80;99.90;;;;;;5023298;23;20243;-88
2022/02/13 06:20:06;;;;;;;4.07;3.37;;;0.60;99.90;;;;;;5013507;28;20668;-91
2022/02/13 06:22:31;;;;;;;4.30;3.00;;;0.60;99.90;;;;;;4997789;28;20180;-90
2022/02/13 06:24:57;;;;;;;4.43;3.17;;;0.60;99.90;;;;;;4998098;28;20791;-88
2022/02/13 06:27:23;;;;;;;3.90;3.07;;;0.60;99.90;;;;;;4996706;28;20181;-88
2022/02/13 06:29:49;;;;;;;3.93;3.10;;;0.60;99.90;;;;;;4995267;28;20202;-88
2022/02/13 06:32:15;;;;;;;5.83;3.23;;;1.60;99.90;;;;;;4997858;28;20181;-88
2022/02/13 06:34:41;;;;;;;4.47;3.00;;;1.60;99.90;;;;;;5015086;28;20415;-88
2022/02/13 06:37:06;;;;;;;3.87;3.13;;;1.90;99.90;;;;;;4994978;28;20201;-89
2022/02/13 06:39:32;;;;;;;3.97;3.00;;;2.30;99.90;;;;;;4998218;28;20204;-89
2022/02/13 06:41:58;;;;;;;4.83;3.27;;;2.30;99.90;;;;;;4998576;28;20227;-88
2022/02/13 06:44:23;;;;;;;4.70;3.37;;;2.40;99.90;;;;;;4998267;28;20172;-88
2022/02/13 06:46:49;;;;;;;3.67;3.20;;;2.10;99.90;;;;;;5012577;28;20188;-88
2022/02/13 06:49:15;;;;;;;3.10;2.73;;;2.40;99.90;;;;;;5019728;28;20174;-87
2022/02/13 06:51:41;;;;;;;4.13;3.17;;;0.80;99.90;;;;;;5018352;28;20180;-89
2022/02/13 06:54:06;;;;;;;4.10;3.00;;;0.80;99.90;;;;;;5021219;28;20165;-88
2022/02/13 06:56:34;;;;;;;3.77;3.30;;;0.10;99.90;;;;;;5038023;28;20196;-85
2022/02/13 06:59:00;;;;;;;4.37;3.40;;;0.90;99.90;;;;;;5013481;28;20180;-89
2022/02/13 07:01:25;;;;;;;5.90;3.87;;;3.20;99.90;;;;;;4998112;28;20425;-87
2022/02/13 07:03:51;;;;;;;4.63;3.43;;;2.60;99.90;;;;;;4998357;28;20180;-88
2022/02/13 07:06:17;;;;;;;6.07;4.00;;;2.20;99.90;;;;;;4998511;28;20679;-89
2022/02/13 07:08:42;;;;;;;5.17;3.60;;;3.10;99.90;;;;;;4997879;28;20265;-89
2022/02/13 07:11:08;;;;;;;5.47;3.07;;;2.70;99.90;;;;;;4997736;28;20199;-89
2022/02/13 07:13:34;;;;;;;4.57;3.33;;;1.30;99.90;;;;;;4997586;28;20226;-89
2022/02/13 07:16:00;;;;;;;4.90;2.90;;;3.00;99.90;;;;;;4997607;28;20200;-89
2022/02/13 07:18:27;;;;;;;3.57;2.90;;;2.70;99.90;;;;;;4997469;28;20435;-89
2022/02/13 07:20:54;;;;;;;2.90;2.70;;;1.70;99.90;;;;;;4997437;28;20169;-89
2022/02/13 07:23:20;;;;;;;3.53;2.97;;;3.40;99.90;;;;;;4997159;28;20416;-89
2022/02/13 07:25:47;;;;;;;3.67;2.93;;;2.00;99.90;;;;;;4997019;28;20446;-89
2022/02/13 07:30:57;;;;;;;4.83;3.83;;;2.30;99.90;;;;;;5015135;28;20454;-89
2022/02/13 07:33:23;;;;;;;5.03;4.00;;;2.60;99.90;;;;;;4997207;28;20411;-89
2022/02/13 07:35:48;;;;;;;5.40;3.93;;;2.90;99.90;;;;;;4997024;28;20254;-89
2022/02/13 07:38:14;;;;;;;5.30;4.10;;;3.40;99.90;;;;;;4998236;28;20181;-89
2022/02/13 07:40:40;;;;;;;5.50;4.33;;;3.80;99.90;;;;;;5013882;28;20608;-89
2022/02/13 07:43:06;;;;;;;5.60;4.40;;;5.50;99.90;;;;;;4997802;28;20626;-89
2022/02/13 07:45:31;;;;;;;7.13;5.63;;;6.80;99.90;;;;;;4998185;28;20227;-89
2022/02/13 07:47:57;;;;;;;14.13;8.87;;;7.00;99.20;;;;;;4996902;28;20180;-90
2022/02/13 07:50:23;;;;;;;28.10;19.17;;;6.70;97.20;;;;;;4997002;28;20173;-89
2022/02/13 07:52:48;;;;;;;7.37;5.00;;;9.60;97.00;;;;;;4997577;28;20169;-89
2022/02/13 07:55:14;;;;;;;5.47;4.00;;;8.70;93.60;;;;;;4997104;28;20176;-89
2022/02/13 07:57:41;;;;;;;6.07;4.57;;;9.60;92.00;;;;;;4996498;28;20199;-89
2022/02/13 08:00:09;;;;;;;6.37;3.67;;;10.70;89.00;;;;;;4996621;28;20231;-90
2022/02/13 08:02:36;;;;;;;6.83;5.30;;;11.60;85.20;;;;;;4995775;28;20172;-89
2022/02/13 08:05:05;;;;;;;8.37;6.57;;;13.30;81.80;;;;;;4996058;28;20183;-90
2022/02/13 08:07:31;;;;;;;6.70;5.23;;;14.00;76.70;;;;;;5013464;28;20203;-90
2022/02/13 08:09:56;;;;;;;3.40;3.10;;;15.10;70.80;;;;;;4995792;28;20177;-90
2022/02/13 08:12:22;;;;;;;10.83;8.07;;;16.10;66.50;;;;;;4996345;28;20172;-89
2022/02/13 08:14:48;;;;;;;9.53;8.43;;;17.40;63.30;;;;;;4995509;28;20237;-89
2022/02/13 08:17:14;;;;;;;7.63;6.33;;;18.90;58.90;;;;;;4995970;28;20191;-90
2022/02/13 08:19:39;;;;;;;3.78;3.47;;;22.00;56.40;;;;;;4995339;28;20264;-90
2022/02/13 08:22:06;;;;;;;3.53;3.08;;;21.70;50.90;;;;;;4995492;28;20732;-90
2022/02/13 08:24:33;;;;;;;3.80;2.80;;;22.50;47.10;;;;;;4995880;28;20203;-90
2022/02/13 08:26:59;;;;;;;2.75;2.50;;;24.70;45.70;;;;;;4995613;28;20207;-90
2022/02/13 08:29:26;;;;;;;2.75;2.55;;;26.00;42.80;;;;;;4995737;28;20180;-90
2022/02/13 08:31:52;;;;;;;2.47;2.28;;;27.20;40.50;;;;;;4995695;28;20668;-90
2022/02/13 08:34:18;;;;;;;3.90;2.50;;;28.50;38.60;;;;;;5013296;28;20180;-90
2022/02/13 08:36:44;;;;;;;4.07;2.70;;;29.70;36.40;;;;;;4995543;28;20346;-91
2022/02/13 08:39:09;;;;;;;2.88;2.58;;;30.70;34.60;;;;;;4995659;28;20528;-88
2022/02/13 08:41:36;;;;;;;2.88;2.58;;;31.70;33.10;;;;;;4995478;28;20223;-90
2022/02/13 08:44:06;;;;;;;3.50;2.75;;;32.70;31.70;;;;;;4996236;28;20623;-88
2022/02/13 08:46:33;;;;;;;2.88;2.67;;;33.60;30.00;;;;;;4995244;28;20184;-91
2022/02/13 08:49:03;;;;;;;3.40;3.10;;;34.00;28.70;;;;;;4992909;28;20173;-89
2022/02/13 08:51:32;;;;;;;3.28;2.92;;;34.20;28.50;;;;;;4993966;28;20267;-89
2022/02/13 08:53:59;;;;;;;3.28;2.97;;;35.20;28.10;;;;;;4992728;28;20517;-89
2022/02/13 08:56:25;;;;;;;3.58;3.28;;;33.50;26.70;;;;;;4993719;28;20288;-89
2022/02/13 08:58:55;;;;;;;3.72;3.33;;;35.20;27.20;;;;;;4991254;28;20653;-89
2022/02/13 09:01:22;;;;;;;3.65;3.17;;;35.30;26.10;;;;;;4992274;28;20177;-90
2022/02/13 09:03:47;;;;;;;3.30;2.95;;;35.10;26.10;;;;;;4991922;28;20199;-89
2022/02/13 09:06:13;;;;;;;3.20;2.90;;;35.50;26.30;;;;;;4991450;28;20177;-90
2022/02/13 09:08:39;;;;;;;4.00;3.28;;;36.00;25.50;;;;;;4991865;28;20219;-90
2022/02/13 09:11:04;;;;;;;2.80;2.60;;;36.10;25.20;;;;;;4992252;28;20184;-89
2022/02/13 09:13:30;;;;;;;3.35;3.05;;;35.70;25.30;;;;;;4985344;28;20189;-90
2022/02/13 09:15:56;;;;;;;3.60;3.30;;;33.40;24.20;;;;;;4991238;28;20209;-90
2022/02/13 09:18:21;;;;;;;3.50;3.20;;;33.70;25.90;;;;;;5001130;28;20195;-90
2022/02/13 09:20:47;;;;;;;3.42;2.97;;;33.10;26.40;;;;;;4995984;28;20173;-90
2022/02/13 09:23:17;;;;;;;3.63;3.33;;;32.70;26.40;;;;;;4995624;28;20176;-90
2022/02/13 09:25:44;;;;;;;3.60;3.08;;;32.90;26.50;;;;;;4995242;28;20172;-90
2022/02/13 09:28:10;;;;;;;3.45;3.15;;;32.90;26.50;;;;;;5012469;28;20303;-89
2022/02/13 09:30:35;;;;;;;3.30;3.00;;;32.80;26.20;;;;;;4986755;28;20567;-89
2022/02/13 09:33:01;;;;;;;3.05;2.75;;;32.60;26.30;;;;;;4992792;28;20180;-90
2022/02/13 09:35:27;;;;;;;4.78;3.10;;;33.10;26.50;;;;;;4997261;28;20207;-91
2022/02/13 09:37:53;;;;;;;3.38;2.80;;;35.30;26.50;;;;;;4998323;28;20204;-90
2022/02/13 09:40:19;;;;;;;3.10;2.80;;;34.50;25.60;;;;;;4997667;28;20625;-90
2022/02/13 09:42:46;;;;;;;3.00;2.70;;;35.00;25.20;;;;;;4998494;28;20183;-91
2022/02/13 09:45:13;;;;;;;2.78;2.53;;;35.10;25.00;;;;;;4999036;28;20172;-90
2022/02/13 09:47:39;;;;;;;3.08;2.65;;;34.60;24.80;;;;;;4999234;28;20173;-91
2022/02/13 09:50:08;;;;;;;2.78;2.40;;;33.90;25.30;;;;;;4987012;28;20181;-91
2022/02/13 09:52:34;;;;;;;2.83;2.47;;;35.70;25.80;;;;;;4997378;28;20173;-90
2022/02/13 09:55:02;;;;;;;2.95;2.65;;;35.10;24.20;;;;;;4998938;28;20253;-90
2022/02/13 10:00:13;;;;;;;3.47;2.47;;;36.20;24.70;;;;;;5013551;28;20203;-90
2022/02/13 10:02:43;;;;;;;3.28;3.03;;;37.70;23.80;;;;;;4998957;28;20223;-92
2022/02/13 10:05:12;;;;;;;2.50;2.30;;;39.30;23.40;;;;;;4985023;28;20655;-90
2022/02/13 10:07:39;;;;;;;3.22;2.03;;;40.40;22.60;;;;;;4994426;28;20227;-91
2022/02/13 10:10:08;;;;;;;3.30;3.00;;;41.20;21.50;;;;;;4998496;28;20172;-91
2022/02/13 10:12:44;;;;;;;4.07;2.40;;;41.60;21.40;;;;;;4998785;28;20180;-91
2022/02/13 10:15:22;;;;;;;2.42;2.22;;;42.10;20.90;;;;;;4995263;28;20540;-91
2022/02/13 10:18:01;;;;;;;2.35;2.15;;;42.40;19.90;;;;;;4978277;28;20248;-90
2022/02/13 10:20:33;;;;;;;3.35;2.05;;;41.10;20.10;;;;;;4978193;28;20172;-92
2022/02/13 10:23:05;;;;;;;3.78;2.38;;;42.20;19.90;;;;;;4978830;28;20230;-91
2022/02/13 10:25:32;;;;;;;2.50;2.17;;;41.90;20.10;;;;;;4978846;28;20173;-92
2022/02/13 10:27:58;;;;;;;2.30;2.10;;;42.30;19.50;;;;;;4978645;28;20181;-91
2022/02/13 10:30:38;;;;;;;2.42;2.10;;;42.60;18.90;;;;;;4978475;28;20176;-92
2022/02/13 10:33:25;;;;;;;2.47;2.28;;;42.50;19.20;;;;;;4978806;28;20176;-91
2022/02/13 10:36:10;;;;;;;2.35;2.15;;;42.40;19.10;;;;;;4978566;28;20177;-92
2022/02/13 10:38:43;;;;;;;2.10;1.92;;;42.60;18.50;;;;;;4978816;28;20621;-90
2022/02/13 10:41:27;;;;;;;2.25;2.00;;;42.50;19.10;;;;;;4978426;28;20625;-92
2022/02/13 10:43:58;;;;;;;2.47;2.08;;;42.70;19.10;;;;;;4978823;28;20176;-91
2022/02/13 10:46:32;;;;;;;2.35;1.90;;;41.90;17.90;;;;;;4978084;28;20181;-92
2022/02/13 10:48:58;;;;;;;2.13;2.03;;;44.00;18.10;;;;;;4978537;28;20516;-92
2022/02/13 10:51:25;;;;;;;2.30;2.10;;;44.00;17.40;;;;;;4978016;28;20184;-92
2022/02/13 10:53:52;;;;;;;2.30;2.08;;;44.20;17.80;;;;;;4979353;28;20652;-90
2022/02/13 10:56:18;;;;;;;2.25;2.05;;;42.90;17.90;;;;;;4978870;28;20300;-91
2022/02/13 10:58:45;;;;;;;2.13;1.92;;;43.30;17.60;;;;;;4978458;28;20173;-91
2022/02/13 11:01:12;;;;;;;2.33;1.88;;;43.90;17.30;;;;;;4979535;28;20653;-92
2022/02/13 11:03:38;;;;;;;1.90;1.58;;;44.00;17.30;;;;;;4990652;28;20244;-92
2022/02/13 11:06:06;;;;;;;1.77;1.67;;;44.30;16.70;;;;;;4998318;28;20215;-91
2022/02/13 11:08:38;;;;;;;4.03;2.47;;;44.00;15.70;;;;;;4997800;28;20644;-90
2022/02/13 11:11:04;;;;;;;3.00;2.20;;;42.80;16.60;;;;;;4999557;28;20176;-91
2022/02/13 11:13:33;;;;;;;1.92;1.77;;;42.30;16.80;;;;;;4999574;28;20392;-91
2022/02/13 11:16:00;;;;;;;2.05;1.90;;;41.80;16.60;;;;;;4999366;28;20199;-91
2022/02/13 11:18:28;;;;;;;2.13;1.58;;;41.70;16.90;;;;;;4999158;28;20203;-92
2022/02/13 11:20:55;;;;;;;3.65;2.90;;;41.90;17.00;;;;;;5015902;28;20172;-91
2022/02/13 11:23:22;;;;;;;1.80;1.70;;;42.30;17.10;;;;;;4998752;28;20180;-91
2022/02/13 11:25:50;;;;;;;2.00;1.80;;;42.10;16.50;;;;;;4998944;28;20175;-92
2022/02/13 11:28:23;;;;;;;2.60;1.77;;;42.30;16.60;;;;;;4998433;28;20188;-90
2022/02/13 11:30:51;;;;;;;2.55;2.03;;;42.20;16.40;;;;;;4998003;28;20168;-92
2022/02/13 11:33:23;;;;;;;1.77;1.58;;;41.80;17.10;;;;;;4998613;28;20218;-92
2022/02/13 11:36:00;;;;;;;1.95;1.75;;;42.10;16.90;;;;;;5005995;28;20195;-92
2022/02/13 11:38:46;;;;;;;3.55;1.70;;;42.00;16.20;;;;;;5021660;28;20164;-91
2022/02/13 11:41:13;;;;;;;1.73;1.60;;;41.60;16.10;;;;;;5021106;28;20206;-93
2022/02/13 11:43:48;;;;;;;1.98;1.60;;;41.40;16.40;;;;;;5019866;28;20174;-91
2022/02/13 11:46:25;;;;;;;1.65;1.55;;;41.80;16.40;;;;;;5021570;28;20167;-91
2022/02/13 11:49:04;;;;;;;1.52;1.42;;;42.00;16.50;;;;;;5017022;28;20191;-91
2022/02/13 11:51:48;;;;;;;2.22;1.60;;;41.50;16.50;;;;;;4999963;28;20168;-91
2022/02/13 11:54:45;;;;;;;1.73;1.40;;;41.50;16.00;;;;;;4997835;28;20167;-91
2022/02/13 11:57:19;;;;;;;2.15;1.70;;;41.10;16.40;;;;;;4996735;28;20208;-92
2022/02/13 11:59:51;;;;;;;1.83;1.50;;;41.00;16.10;;;;;;4996849;28;20180;-92
2022/02/13 12:02:35;;;;;;;2.42;1.63;;;41.00;16.60;;;;;;4996849;28;20176;-91
2022/02/13 12:05:07;;;;;;;1.95;1.77;;;41.30;15.60;;;;;;4992116;28;20191;-91
2022/02/13 12:07:42;;;;;;;1.90;1.60;;;41.50;15.80;;;;;;4975943;28;20180;-92
2022/02/13 12:10:11;;;;;;;1.48;1.20;;;41.50;15.70;;;;;;4991801;28;20187;-91
2022/02/13 12:12:40;;;;;;;1.30;1.20;;;41.10;15.80;;;;;;4976622;28;20601;-93
2022/02/13 12:15:13;;;;;;;1.95;1.52;;;40.90;15.50;;;;;;4976992;28;20177;-90
2022/02/13 12:17:39;;;;;;;1.30;1.20;;;40.50;15.60;;;;;;4976832;28;20216;-92
2022/02/13 12:20:13;;;;;;;3.13;1.52;;;39.20;16.20;;;;;;4976025;28;20719;-90
2022/02/13 12:22:41;;;;;;;2.50;1.67;;;38.00;16.10;;;;;;4975881;28;20518;-91
2022/02/13 12:25:09;;;;;;;1.52;1.42;;;35.10;18.00;;;;;;4976064;28;20180;-90
2022/02/13 12:27:40;;;;;;;1.40;1.30;;;33.80;18.60;;;;;;4975596;28;20248;-90
2022/02/13 12:30:10;;;;;;;1.35;1.25;;;32.30;18.60;;;;;;4975746;28;20695;-90
2022/02/13 12:32:39;;;;;;;2.65;1.67;;;32.40;20.00;;;;;;4975820;28;20181;-91
2022/02/13 12:35:10;;;;;;;1.70;1.60;;;32.60;20.00;;;;;;4978351;28;20269;-91
2022/02/13 12:37:40;;;;;;;2.08;1.60;;;33.10;19.80;;;;;;4995805;28;20215;-90
2022/02/13 12:40:12;;;;;;;1.90;1.80;;;33.70;19.50;;;;;;4995784;28;20262;-91
2022/02/13 12:42:40;;;;;;;2.40;2.20;;;33.90;20.00;;;;;;4996208;28;20176;-91
2022/02/13 12:45:12;;;;;;;2.63;1.65;;;33.20;20.20;;;;;;4996149;28;20177;-91
2022/02/13 12:47:40;;;;;;;2.40;2.10;;;32.80;21.00;;;;;;4996310;28;20191;-91
2022/02/13 12:50:11;;;;;;;2.10;1.90;;;33.50;20.60;;;;;;4995688;28;20175;-91
2022/02/13 12:52:37;;;;;;;2.53;2.08;;;34.10;19.90;;;;;;4995746;28;20520;-91
2022/02/13 12:55:09;;;;;;;2.60;1.85;;;34.20;20.10;;;;;;4995417;28;20515;-90
2022/02/13 12:57:39;;;;;;;2.10;2.00;;;34.20;20.10;;;;;;4995776;28;20207;-91